Etusivu
METAR-TAF:

METAR-TAF

Lentoasemat :

High Level, Alberta, Kanada

Leveyspiiri: 58-37N, Pituuspiiri: 117-10W, korkeus merenpinnasta: 338 m

Tämänhetkinen sää

Tämä raportti tehtiin 25 minuuttia sitten, kello 17.00 UTC
Tuuli 3 kn pohjoisen/luoteesta, vaihdellen lännen/luoteen ja pohjoisen/koillisen välillä
Lämpötila 22°C
Kosteus 73%
Ilmanpaine 1023 hPa
Näkyvyys: 1.2 km
savua

METAR: CYOJ 211700Z 33003KT 300V020 3/4SM FU VV010 22/17 A3021 RMK FU8 SLP238 DENSITY ALT 1800FT

Aika: 11:25 (17:25 UTC)

Sääennuste

Tämä raportti tehtiin 4 tuntia ja 45 minuuttia sitten, kello 12.40 UTC
Ennuste voimassa 21. päivästä klo 13 UTC - 22. päivään klo 01 UTC
Tuuli 3 kn eri suunnista
Näkyvyys: 1.2 km
1200 ft:n korkeudessa
savua
Ajoittain
21. päivästä klo 13 UTC - 22. päivään klo 01 UTC
Näkyvyys: 6.4 km
Hajonneita pilviä 6000 ft:n korkeudessa
savua

TAF: CYOJ 211240Z 2113/2201 VRB03KT 3/4SM FU VV012 TEMPO 2113/2201 4SM FU BKN060 RMK FCST BASED ON AUTO OBS. NXT FCST BY 211900Z

Säähavainnot ja -ennusteet yli 4000 lentoasemalta (METAR- ja TAF-raportit).

Käytössä olevat sääasemat on merkitty karttaan keltaisilla ja punaisilla pisteillä.

Aseta hiiri pisteen päälle nähdäksesi sääaseman nimen.

Klikkaa sitten nähdäksesi säähavainnot ja -ennusteet.

Kartan vaihtaminen: klikkaa mustalla rastilla varustettuja vihreitä pisteitä, niin voit zoomata sisään; viivalla varustettua vihreää pistettä, niin voit zoomata ulos tai vihreitä nuolia, niin pääset viereisille kartoille.


METAR-TAF: